sensor_id;sensor_type;location;lat;lon;timestamp;P1;durP1;ratioP1;P2;durP2;ratioP2
28577;SDS011;15769;52.248;15.818;2022-12-18T00:01:35;187.50;;;49.20;;
28577;SDS011;15769;52.248;15.818;2022-12-18T00:06:39;208.70;;;46.07;;
28577;SDS011;15769;52.248;15.818;2022-12-18T00:11:47;186.77;;;46.40;;
28577;SDS011;15769;52.248;15.818;2022-12-18T00:16:50;199.93;;;46.23;;
28577;SDS011;15769;52.248;15.818;2022-12-18T00:21:56;189.55;;;44.00;;
28577;SDS011;15769;52.248;15.818;2022-12-18T00:27:00;162.83;;;39.93;;
28577;SDS011;15769;52.248;15.818;2022-12-18T00:32:11;154.90;;;37.43;;
28577;SDS011;15769;52.248;15.818;2022-12-18T00:37:14;151.97;;;37.03;;
28577;SDS011;15769;52.248;15.818;2022-12-18T00:42:25;144.70;;;34.90;;
28577;SDS011;15769;52.248;15.818;2022-12-18T00:47:47;145.67;;;40.43;;
28577;SDS011;15769;52.248;15.818;2022-12-18T00:52:50;92.70;;;23.97;;
28577;SDS011;15769;52.248;15.818;2022-12-18T01:02:56;131.40;;;35.80;;
28577;SDS011;15769;52.248;15.818;2022-12-18T01:08:00;115.90;;;33.90;;
28577;SDS011;15769;52.248;15.818;2022-12-18T01:13:05;125.17;;;35.20;;
28577;SDS011;15769;52.248;15.818;2022-12-18T01:18:08;96.43;;;29.92;;
28577;SDS011;15769;52.248;15.818;2022-12-18T01:23:11;99.17;;;26.30;;
28577;SDS011;15769;52.248;15.818;2022-12-18T01:28:14;119.40;;;35.38;;
28577;SDS011;15769;52.248;15.818;2022-12-18T01:33:16;115.50;;;35.85;;
28577;SDS011;15769;52.248;15.818;2022-12-18T01:38:19;76.47;;;23.80;;
28577;SDS011;15769;52.248;15.818;2022-12-18T01:43:39;98.37;;;25.30;;
28577;SDS011;15769;52.248;15.818;2022-12-18T01:48:44;195.40;;;51.10;;
28577;SDS011;15769;52.248;15.818;2022-12-18T01:53:50;99.87;;;31.67;;
28577;SDS011;15769;52.248;15.818;2022-12-18T01:58:54;97.43;;;29.13;;
28577;SDS011;15769;52.248;15.818;2022-12-18T02:09:31;108.80;;;34.10;;
28577;SDS011;15769;52.248;15.818;2022-12-18T02:20:11;118.20;;;37.60;;
28577;SDS011;15769;52.248;15.818;2022-12-18T02:30:56;78.73;;;25.57;;
28577;SDS011;15769;52.248;15.818;2022-12-18T02:36:03;89.10;;;29.00;;
28577;SDS011;15769;52.248;15.818;2022-12-18T02:41:16;88.50;;;28.30;;
28577;SDS011;15769;52.248;15.818;2022-12-18T02:46:30;95.47;;;28.77;;
28577;SDS011;15769;52.248;15.818;2022-12-18T02:57:28;89.30;;;28.23;;
28577;SDS011;15769;52.248;15.818;2022-12-18T03:02:42;81.03;;;27.50;;
28577;SDS011;15769;52.248;15.818;2022-12-18T03:07:56;94.70;;;31.20;;
28577;SDS011;15769;52.248;15.818;2022-12-18T03:13:32;88.93;;;28.73;;
28577;SDS011;15769;52.248;15.818;2022-12-18T03:18:57;86.03;;;27.67;;
28577;SDS011;15769;52.248;15.818;2022-12-18T03:24:01;98.17;;;30.53;;
28577;SDS011;15769;52.248;15.818;2022-12-18T03:29:09;84.43;;;24.93;;
28577;SDS011;15769;52.248;15.818;2022-12-18T03:34:17;70.20;;;22.53;;
28577;SDS011;15769;52.248;15.818;2022-12-18T03:39:24;85.07;;;25.97;;
28577;SDS011;15769;52.248;15.818;2022-12-18T03:55:32;65.50;;;23.17;;
28577;SDS011;15769;52.248;15.818;2022-12-18T04:00:39;73.23;;;24.13;;
28577;SDS011;15769;52.248;15.818;2022-12-18T04:05:44;71.23;;;24.77;;
28577;SDS011;15769;52.248;15.818;2022-12-18T04:10:56;71.43;;;24.20;;
28577;SDS011;15769;52.248;15.818;2022-12-18T04:16:02;71.63;;;24.83;;
28577;SDS011;15769;52.248;15.818;2022-12-18T04:21:09;59.13;;;21.77;;
28577;SDS011;15769;52.248;15.818;2022-12-18T04:26:13;63.30;;;22.93;;
28577;SDS011;15769;52.248;15.818;2022-12-18T04:31:25;63.37;;;24.10;;
28577;SDS011;15769;52.248;15.818;2022-12-18T04:36:28;74.60;;;24.65;;
28577;SDS011;15769;52.248;15.818;2022-12-18T04:41:33;75.90;;;27.67;;
28577;SDS011;15769;52.248;15.818;2022-12-18T04:46:36;98.23;;;33.07;;
28577;SDS011;15769;52.248;15.818;2022-12-18T04:51:40;97.30;;;32.20;;
28577;SDS011;15769;52.248;15.818;2022-12-18T04:56:43;78.03;;;27.60;;
28577;SDS011;15769;52.248;15.818;2022-12-18T05:01:45;109.03;;;35.30;;
28577;SDS011;15769;52.248;15.818;2022-12-18T05:06:49;91.53;;;32.58;;
28577;SDS011;15769;52.248;15.818;2022-12-18T05:11:53;95.67;;;36.70;;
28577;SDS011;15769;52.248;15.818;2022-12-18T05:16:55;125.07;;;48.63;;
28577;SDS011;15769;52.248;15.818;2022-12-18T05:22:11;136.10;;;46.67;;
28577;SDS011;15769;52.248;15.818;2022-12-18T05:27:14;118.10;;;42.00;;
28577;SDS011;15769;52.248;15.818;2022-12-18T05:32:16;117.57;;;40.30;;
28577;SDS011;15769;52.248;15.818;2022-12-18T05:37:19;93.73;;;32.03;;
28577;SDS011;15769;52.248;15.818;2022-12-18T05:42:21;93.13;;;35.57;;
28577;SDS011;15769;52.248;15.818;2022-12-18T05:47:24;66.43;;;25.40;;
28577;SDS011;15769;52.248;15.818;2022-12-18T05:52:27;86.85;;;34.58;;
28577;SDS011;15769;52.248;15.818;2022-12-18T05:57:30;60.77;;;23.37;;
28577;SDS011;15769;52.248;15.818;2022-12-18T06:02:32;53.43;;;21.33;;
28577;SDS011;15769;52.248;15.818;2022-12-18T06:07:35;59.22;;;24.65;;
28577;SDS011;15769;52.248;15.818;2022-12-18T06:12:38;58.25;;;25.00;;
28577;SDS011;15769;52.248;15.818;2022-12-18T06:17:43;58.37;;;24.03;;
28577;SDS011;15769;52.248;15.818;2022-12-18T06:22:45;37.38;;;17.42;;
28577;SDS011;15769;52.248;15.818;2022-12-18T06:27:48;66.17;;;28.57;;
28577;SDS011;15769;52.248;15.818;2022-12-18T06:32:51;88.67;;;34.83;;
28577;SDS011;15769;52.248;15.818;2022-12-18T06:37:58;83.27;;;35.03;;
28577;SDS011;15769;52.248;15.818;2022-12-18T06:43:01;64.28;;;30.10;;
28577;SDS011;15769;52.248;15.818;2022-12-18T06:48:03;35.10;;;15.40;;
28577;SDS011;15769;52.248;15.818;2022-12-18T06:53:06;40.63;;;17.00;;
28577;SDS011;15769;52.248;15.818;2022-12-18T06:58:09;50.60;;;19.90;;
28577;SDS011;15769;52.248;15.818;2022-12-18T07:03:13;50.75;;;21.85;;
28577;SDS011;15769;52.248;15.818;2022-12-18T07:08:16;43.88;;;19.65;;
28577;SDS011;15769;52.248;15.818;2022-12-18T07:13:19;37.40;;;16.65;;
28577;SDS011;15769;52.248;15.818;2022-12-18T07:18:22;31.17;;;15.83;;
28577;SDS011;15769;52.248;15.818;2022-12-18T07:23:25;31.35;;;15.18;;
28577;SDS011;15769;52.248;15.818;2022-12-18T07:28:27;32.13;;;15.93;;
28577;SDS011;15769;52.248;15.818;2022-12-18T07:33:30;42.97;;;21.90;;
28577;SDS011;15769;52.248;15.818;2022-12-18T07:38:35;42.13;;;21.20;;
28577;SDS011;15769;52.248;15.818;2022-12-18T07:43:38;46.00;;;21.35;;
28577;SDS011;15769;52.248;15.818;2022-12-18T07:48:43;45.10;;;19.60;;
28577;SDS011;15769;52.248;15.818;2022-12-18T07:53:51;47.63;;;22.70;;
28577;SDS011;15769;52.248;15.818;2022-12-18T07:58:56;33.60;;;15.43;;
28577;SDS011;15769;52.248;15.818;2022-12-18T08:04:06;53.90;;;24.03;;
28577;SDS011;15769;52.248;15.818;2022-12-18T08:09:09;38.22;;;17.42;;
28577;SDS011;15769;52.248;15.818;2022-12-18T08:14:18;49.90;;;22.53;;
28577;SDS011;15769;52.248;15.818;2022-12-18T08:19:26;57.50;;;24.57;;
28577;SDS011;15769;52.248;15.818;2022-12-18T08:24:31;61.00;;;26.20;;
28577;SDS011;15769;52.248;15.818;2022-12-18T08:29:39;68.77;;;27.47;;
28577;SDS011;15769;52.248;15.818;2022-12-18T08:34:45;67.38;;;28.95;;
28577;SDS011;15769;52.248;15.818;2022-12-18T08:39:50;61.73;;;27.20;;
28577;SDS011;15769;52.248;15.818;2022-12-18T08:44:58;57.20;;;23.87;;
28577;SDS011;15769;52.248;15.818;2022-12-18T08:50:02;60.00;;;24.00;;
28577;SDS011;15769;52.248;15.818;2022-12-18T08:55:09;75.95;;;28.65;;
28577;SDS011;15769;52.248;15.818;2022-12-18T09:00:18;82.73;;;34.30;;
28577;SDS011;15769;52.248;15.818;2022-12-18T09:05:23;97.57;;;41.60;;
28577;SDS011;15769;52.248;15.818;2022-12-18T09:10:31;37.60;;;15.07;;
28577;SDS011;15769;52.248;15.818;2022-12-18T09:15:34;47.13;;;18.40;;
28577;SDS011;15769;52.248;15.818;2022-12-18T09:20:37;40.37;;;15.63;;
28577;SDS011;15769;52.248;15.818;2022-12-18T09:25:41;53.80;;;22.43;;
28577;SDS011;15769;52.248;15.818;2022-12-18T09:30:47;52.30;;;22.35;;
28577;SDS011;15769;52.248;15.818;2022-12-18T09:35:54;53.83;;;24.87;;
28577;SDS011;15769;52.248;15.818;2022-12-18T09:46:36;45.13;;;19.27;;
28577;SDS011;15769;52.248;15.818;2022-12-18T10:04:39;157.00;;;53.83;;
28577;SDS011;15769;52.248;15.818;2022-12-18T10:54:54;49.37;;;20.20;;
28577;SDS011;15769;52.248;15.818;2022-12-18T11:05:48;48.20;;;19.93;;
28577;SDS011;15769;52.248;15.818;2022-12-18T11:11:06;45.33;;;18.83;;
28577;SDS011;15769;52.248;15.818;2022-12-18T11:16:19;62.30;;;26.07;;
28577;SDS011;15769;52.248;15.818;2022-12-18T11:21:22;60.60;;;27.48;;
28577;SDS011;15769;52.248;15.818;2022-12-18T11:26:34;64.57;;;25.30;;
28577;SDS011;15769;52.248;15.818;2022-12-18T11:31:37;114.70;;;54.47;;
28577;SDS011;15769;52.248;15.818;2022-12-18T11:36:42;58.28;;;25.58;;
28577;SDS011;15769;52.248;15.818;2022-12-18T11:41:52;45.43;;;20.00;;
28577;SDS011;15769;52.248;15.818;2022-12-18T11:52:38;41.93;;;18.33;;
28577;SDS011;15769;52.248;15.818;2022-12-18T12:08:46;53.43;;;21.17;;
28577;SDS011;15769;52.248;15.818;2022-12-18T12:15:09;51.13;;;21.50;;
28577;SDS011;15769;52.248;15.818;2022-12-18T12:20:33;49.00;;;19.30;;
28577;SDS011;15769;52.248;15.818;2022-12-18T12:30:26;93.67;;;38.43;;
28577;SDS011;15769;52.248;15.818;2022-12-18T12:41:00;61.88;;;24.00;;
28577;SDS011;15769;52.248;15.818;2022-12-18T12:46:06;53.50;;;21.67;;
28577;SDS011;15769;52.248;15.818;2022-12-18T12:51:40;45.67;;;21.00;;
28577;SDS011;15769;52.248;15.818;2022-12-18T12:56:54;61.60;;;26.10;;
28577;SDS011;15769;52.248;15.818;2022-12-18T13:07:39;55.53;;;24.77;;
28577;SDS011;15769;52.248;15.818;2022-12-18T13:13:00;67.30;;;28.17;;
28577;SDS011;15769;52.248;15.818;2022-12-18T13:33:49;70.10;;;30.30;;
28577;SDS011;15769;52.248;15.818;2022-12-18T13:44:33;66.57;;;29.53;;
28577;SDS011;15769;52.248;15.818;2022-12-18T13:49:43;57.10;;;24.57;;
28577;SDS011;15769;52.248;15.818;2022-12-18T13:54:50;78.63;;;31.53;;
28577;SDS011;15769;52.248;15.818;2022-12-18T13:59:55;75.30;;;29.00;;
28577;SDS011;15769;52.248;15.818;2022-12-18T14:04:59;72.00;;;29.53;;
28577;SDS011;15769;52.248;15.818;2022-12-18T14:10:01;55.38;;;22.42;;
28577;SDS011;15769;52.248;15.818;2022-12-18T14:20:28;73.90;;;30.17;;
28577;SDS011;15769;52.248;15.818;2022-12-18T14:25:33;75.50;;;30.97;;
28577;SDS011;15769;52.248;15.818;2022-12-18T14:30:36;73.10;;;29.33;;
28577;SDS011;15769;52.248;15.818;2022-12-18T14:35:52;79.87;;;31.37;;
28577;SDS011;15769;52.248;15.818;2022-12-18T14:41:00;70.13;;;29.73;;
28577;SDS011;15769;52.248;15.818;2022-12-18T14:46:05;76.27;;;31.67;;
28577;SDS011;15769;52.248;15.818;2022-12-18T15:01:26;82.83;;;33.70;;
28577;SDS011;15769;52.248;15.818;2022-12-18T15:06:32;83.17;;;31.77;;
28577;SDS011;15769;52.248;15.818;2022-12-18T15:16:44;85.43;;;32.27;;
28577;SDS011;15769;52.248;15.818;2022-12-18T15:21:47;99.03;;;36.80;;
28577;SDS011;15769;52.248;15.818;2022-12-18T15:26:50;89.85;;;37.22;;
28577;SDS011;15769;52.248;15.818;2022-12-18T15:32:00;97.37;;;38.17;;
28577;SDS011;15769;52.248;15.818;2022-12-18T15:37:07;105.50;;;40.90;;
28577;SDS011;15769;52.248;15.818;2022-12-18T15:47:32;97.27;;;37.23;;
28577;SDS011;15769;52.248;15.818;2022-12-18T15:52:47;101.57;;;40.33;;
28577;SDS011;15769;52.248;15.818;2022-12-18T15:57:51;113.80;;;42.90;;
28577;SDS011;15769;52.248;15.818;2022-12-18T16:02:54;123.73;;;44.10;;
28577;SDS011;15769;52.248;15.818;2022-12-18T16:08:01;116.90;;;42.97;;
28577;SDS011;15769;52.248;15.818;2022-12-18T16:13:21;120.10;;;45.43;;
28577;SDS011;15769;52.248;15.818;2022-12-18T16:18:23;98.73;;;33.97;;
28577;SDS011;15769;52.248;15.818;2022-12-18T16:23:26;89.27;;;32.20;;
28577;SDS011;15769;52.248;15.818;2022-12-18T16:28:29;105.05;;;37.55;;
28577;SDS011;15769;52.248;15.818;2022-12-18T16:33:35;117.67;;;45.63;;
28577;SDS011;15769;52.248;15.818;2022-12-18T16:38:37;121.43;;;46.40;;
28577;SDS011;15769;52.248;15.818;2022-12-18T16:43:40;89.17;;;33.30;;
28577;SDS011;15769;52.248;15.818;2022-12-18T16:48:43;128.40;;;47.40;;
28577;SDS011;15769;52.248;15.818;2022-12-18T16:53:45;141.53;;;48.27;;
28577;SDS011;15769;52.248;15.818;2022-12-18T16:58:54;129.73;;;48.23;;
28577;SDS011;15769;52.248;15.818;2022-12-18T17:04:02;134.03;;;48.23;;
28577;SDS011;15769;52.248;15.818;2022-12-18T17:09:06;127.43;;;46.93;;
28577;SDS011;15769;52.248;15.818;2022-12-18T17:14:20;135.20;;;49.33;;
28577;SDS011;15769;52.248;15.818;2022-12-18T17:19:24;143.40;;;50.17;;
28577;SDS011;15769;52.248;15.818;2022-12-18T17:24:28;134.57;;;50.63;;
28577;SDS011;15769;52.248;15.818;2022-12-18T17:29:36;150.03;;;52.70;;
28577;SDS011;15769;52.248;15.818;2022-12-18T17:34:46;132.80;;;50.53;;
28577;SDS011;15769;52.248;15.818;2022-12-18T17:39:48;103.40;;;38.60;;
28577;SDS011;15769;52.248;15.818;2022-12-18T17:44:51;101.17;;;37.47;;
28577;SDS011;15769;52.248;15.818;2022-12-18T17:49:53;104.80;;;38.87;;
28577;SDS011;15769;52.248;15.818;2022-12-18T17:54:56;141.20;;;51.25;;
28577;SDS011;15769;52.248;15.818;2022-12-18T17:59:59;104.90;;;39.77;;
28577;SDS011;15769;52.248;15.818;2022-12-18T18:05:02;146.33;;;53.17;;
28577;SDS011;15769;52.248;15.818;2022-12-18T18:10:05;145.07;;;51.50;;
28577;SDS011;15769;52.248;15.818;2022-12-18T18:15:11;136.43;;;51.83;;
28577;SDS011;15769;52.248;15.818;2022-12-18T18:20:14;141.00;;;52.33;;
28577;SDS011;15769;52.248;15.818;2022-12-18T18:25:24;137.20;;;49.93;;
28577;SDS011;15769;52.248;15.818;2022-12-18T18:30:29;136.50;;;51.67;;
28577;SDS011;15769;52.248;15.818;2022-12-18T18:35:31;138.23;;;50.33;;
28577;SDS011;15769;52.248;15.818;2022-12-18T18:41:00;138.47;;;52.17;;
28577;SDS011;15769;52.248;15.818;2022-12-18T18:46:04;140.17;;;50.77;;
28577;SDS011;15769;52.248;15.818;2022-12-18T18:51:08;138.18;;;50.72;;
28577;SDS011;15769;52.248;15.818;2022-12-18T18:56:20;142.37;;;50.43;;
28577;SDS011;15769;52.248;15.818;2022-12-18T19:01:44;139.90;;;51.73;;
28577;SDS011;15769;52.248;15.818;2022-12-18T19:06:47;154.73;;;53.13;;
28577;SDS011;15769;52.248;15.818;2022-12-18T19:17:11;154.03;;;54.27;;
28577;SDS011;15769;52.248;15.818;2022-12-18T19:22:15;143.93;;;48.58;;
28577;SDS011;15769;52.248;15.818;2022-12-18T19:27:17;144.50;;;50.80;;
28577;SDS011;15769;52.248;15.818;2022-12-18T19:32:20;143.43;;;49.30;;
28577;SDS011;15769;52.248;15.818;2022-12-18T19:37:24;148.17;;;50.60;;
28577;SDS011;15769;52.248;15.818;2022-12-18T19:42:27;138.97;;;48.60;;
28577;SDS011;15769;52.248;15.818;2022-12-18T19:47:36;144.43;;;50.53;;
28577;SDS011;15769;52.248;15.818;2022-12-18T19:52:39;136.60;;;47.20;;
28577;SDS011;15769;52.248;15.818;2022-12-18T19:57:42;134.93;;;44.83;;
28577;SDS011;15769;52.248;15.818;2022-12-18T20:02:46;143.37;;;48.13;;
28577;SDS011;15769;52.248;15.818;2022-12-18T20:07:49;103.40;;;34.63;;
28577;SDS011;15769;52.248;15.818;2022-12-18T20:12:51;108.15;;;37.17;;
28577;SDS011;15769;52.248;15.818;2022-12-18T20:17:55;129.87;;;46.33;;
28577;SDS011;15769;52.248;15.818;2022-12-18T20:22:58;142.18;;;46.20;;
28577;SDS011;15769;52.248;15.818;2022-12-18T20:28:01;134.55;;;40.40;;
28577;SDS011;15769;52.248;15.818;2022-12-18T20:33:03;103.80;;;36.13;;
28577;SDS011;15769;52.248;15.818;2022-12-18T20:38:08;139.50;;;47.87;;
28577;SDS011;15769;52.248;15.818;2022-12-18T20:43:12;135.93;;;46.13;;
28577;SDS011;15769;52.248;15.818;2022-12-18T20:48:18;128.93;;;43.87;;
28577;SDS011;15769;52.248;15.818;2022-12-18T20:53:51;147.60;;;47.20;;
28577;SDS011;15769;52.248;15.818;2022-12-18T20:58:57;136.43;;;46.93;;
28577;SDS011;15769;52.248;15.818;2022-12-18T21:04:13;141.90;;;47.53;;
28577;SDS011;15769;52.248;15.818;2022-12-18T21:09:45;140.47;;;47.37;;
28577;SDS011;15769;52.248;15.818;2022-12-18T21:15:31;132.90;;;45.23;;
28577;SDS011;15769;52.248;15.818;2022-12-18T21:21:16;138.30;;;46.70;;
28577;SDS011;15769;52.248;15.818;2022-12-18T21:27:26;147.17;;;49.77;;
28577;SDS011;15769;52.248;15.818;2022-12-18T21:33:05;148.13;;;48.53;;
28577;SDS011;15769;52.248;15.818;2022-12-18T21:38:09;147.63;;;51.27;;
28577;SDS011;15769;52.248;15.818;2022-12-18T21:43:12;148.80;;;50.88;;
28577;SDS011;15769;52.248;15.818;2022-12-18T21:48:40;153.77;;;52.20;;
28577;SDS011;15769;52.248;15.818;2022-12-18T21:54:27;162.80;;;54.60;;
28577;SDS011;15769;52.248;15.818;2022-12-18T22:00:19;173.07;;;56.87;;
28577;SDS011;15769;52.248;15.818;2022-12-18T22:05:34;166.77;;;55.93;;
28577;SDS011;15769;52.248;15.818;2022-12-18T22:11:42;176.60;;;57.50;;
28577;SDS011;15769;52.248;15.818;2022-12-18T22:18:14;185.73;;;57.87;;
28577;SDS011;15769;52.248;15.818;2022-12-18T22:23:55;194.37;;;60.90;;
28577;SDS011;15769;52.248;15.818;2022-12-18T22:30:23;200.87;;;63.73;;
28577;SDS011;15769;52.248;15.818;2022-12-18T22:35:26;150.95;;;49.20;;
28577;SDS011;15769;52.248;15.818;2022-12-18T22:40:29;201.85;;;62.25;;
28577;SDS011;15769;52.248;15.818;2022-12-18T22:45:31;203.45;;;66.65;;
28577;SDS011;15769;52.248;15.818;2022-12-18T22:50:39;205.83;;;64.43;;
28577;SDS011;15769;52.248;15.818;2022-12-18T22:55:42;168.30;;;53.22;;
28577;SDS011;15769;52.248;15.818;2022-12-18T23:00:45;208.25;;;62.92;;
28577;SDS011;15769;52.248;15.818;2022-12-18T23:05:47;143.63;;;48.37;;
28577;SDS011;15769;52.248;15.818;2022-12-18T23:10:51;201.67;;;62.03;;
28577;SDS011;15769;52.248;15.818;2022-12-18T23:15:54;211.10;;;65.75;;
28577;SDS011;15769;52.248;15.818;2022-12-18T23:20:57;189.27;;;59.30;;
28577;SDS011;15769;52.248;15.818;2022-12-18T23:31:09;201.20;;;60.23;;
28577;SDS011;15769;52.248;15.818;2022-12-18T23:36:17;204.30;;;62.93;;
28577;SDS011;15769;52.248;15.818;2022-12-18T23:41:20;209.65;;;64.38;;
28577;SDS011;15769;52.248;15.818;2022-12-18T23:46:25;198.83;;;59.87;;
28577;SDS011;15769;52.248;15.818;2022-12-18T23:51:30;198.07;;;60.47;;
28577;SDS011;15769;52.248;15.818;2022-12-18T23:56:35;198.03;;;59.57;;
